Time;durP1;ratioP1;P1;durP2;ratioP2;P2;SDS_P1;SDS_P2;PMS_P1;PMS_P2;Temp;Humidity;BMP_temperature;BMP_pressure;BME280_temperature;BME280_humidity;BME280_pressure;Samples;Min_cycle;Max_cycle;Signal;HPM_P1;HPM_P2
2022/08/15 00:01:01;;;;;;;;;;;21.40;99.90;;;;;;5069239;28;19921;-76
2022/08/15 00:03:29;;;;;;;;;;;21.30;99.90;;;;;;5067706;28;20265;-75
2022/08/15 00:05:56;;;;;;;;;;;21.30;99.90;;;;;;5067471;28;19916;-76
2022/08/15 00:08:23;;;;;;;;;;;21.20;99.90;;;;;;5070484;28;20201;-76
2022/08/15 00:10:48;;;;;;;;;;;21.20;99.90;;;;;;5067531;28;19923;-76
2022/08/15 00:13:18;;;;;;;;;;;21.20;99.90;;;;;;5069751;28;19916;-75
2022/08/15 00:15:45;;;;;;;;;;;21.20;99.90;;;;;;5069106;28;19921;-75
2022/08/15 00:18:11;;;;;;;;;;;21.20;99.90;;;;;;5069437;28;19920;-75
2022/08/15 00:20:37;;;;;;;;;;;21.20;99.90;;;;;;5071481;28;19923;-76
2022/08/15 00:23:06;;;;;;;;;;;21.20;99.90;;;;;;5068866;28;19974;-75
2022/08/15 00:25:31;;;;;;;;;;;21.20;99.90;;;;;;5071333;28;19923;-75
2022/08/15 00:27:57;;;;;;;;;;;21.20;99.90;;;;;;5067660;28;19922;-75
2022/08/15 00:30:22;;;;;;;;;;;21.30;99.90;;;;;;5070178;28;19913;-75
2022/08/15 00:32:55;;;;;;;;;;;21.30;99.90;;;;;;5068413;28;20231;-76
2022/08/15 00:35:36;;;;;;;;;;;21.40;99.90;;;;;;5103111;28;19986;-76
2022/08/15 00:38:13;;;;;;;;;;;21.40;99.90;;;;;;5067634;28;19940;-75
2022/08/15 00:43:25;;;;;;;;;;;21.30;99.90;;;;;;5069680;28;20337;-75
2022/08/15 00:45:51;;;;;;;;;;;21.20;99.90;;;;;;5071020;28;19916;-75
2022/08/15 00:49:02;;;;;;;;;;;21.20;99.90;;;;;;5063732;28;19959;-75
2022/08/15 00:51:03;;;;;;;;;;;21.20;99.90;;;;;;5061489;28;19921;-75
2022/08/15 00:53:29;;;;;;;;;;;21.20;99.90;;;;;;5069651;28;20061;-76
2022/08/15 00:55:56;;;;;;;;;;;21.20;99.90;;;;;;5069041;28;20011;-75
2022/08/15 00:58:22;;;;;;;;;;;21.20;99.90;;;;;;5069105;28;20343;-75
2022/08/15 01:00:48;;;;;;;;;;;21.20;99.90;;;;;;5070594;28;20062;-75
2022/08/15 01:03:18;;;;;;;;;;;21.20;99.90;;;;;;5067422;28;19924;-76
2022/08/15 01:05:46;;;;;;;;;;;21.20;99.90;;;;;;5099766;28;19916;-76
2022/08/15 01:08:11;;;;;;;;;;;21.10;99.90;;;;;;5070870;28;19924;-76
2022/08/15 01:10:37;;;;;;;;;;;21.00;99.90;;;;;;5067399;28;20219;-76
2022/08/15 01:13:03;;;;;;;;;;;20.90;99.90;;;;;;5068874;28;19916;-76
2022/08/15 01:15:31;;;;;;;;;;;20.90;99.90;;;;;;5068660;28;19991;-75
2022/08/15 01:17:56;;;;;;;;;;;20.80;99.90;;;;;;5069109;28;19963;-76
2022/08/15 01:20:24;;;;;;;;;;;20.70;99.90;;;;;;5067401;28;19959;-76
2022/08/15 01:23:11;;;;;;;;;;;20.70;99.90;;;;;;5064083;28;19943;-76
2022/08/15 01:25:57;;;;;;;;;;;20.80;99.90;;;;;;5072041;28;20023;-76
2022/08/15 01:28:41;;;;;;;;;;;20.70;99.90;;;;;;5072481;28;19971;-76
2022/08/15 01:31:12;;;;;;;;;;;20.70;99.90;;;;;;5068689;28;19947;-76
2022/08/15 01:33:39;;;;;;;;;;;20.70;99.90;;;;;;5105862;28;20273;-75
2022/08/15 01:36:05;;;;;;;;;;;20.60;99.90;;;;;;5072428;28;19952;-75
2022/08/15 01:38:32;;;;;;;;;;;20.60;99.90;;;;;;5066213;28;19955;-76
2022/08/15 01:41:19;;;;;;;;;;;20.60;99.90;;;;;;5098288;28;19912;-76
2022/08/15 01:43:49;;;;;;;;;;;20.70;99.90;;;;;;5065337;28;20008;-76
2022/08/15 01:46:15;;;;;;;;;;;20.70;99.90;;;;;;5069889;28;19918;-76
2022/08/15 01:48:45;;;;;;;;;;;20.70;99.90;;;;;;5095437;28;19912;-76
2022/08/15 01:51:12;;;;;;;;;;;20.70;99.90;;;;;;5073006;28;19919;-76
2022/08/15 01:53:43;;;;;;;;;;;20.70;99.90;;;;;;5105475;28;19965;-76
2022/08/15 01:56:19;;;;;;;;;;;20.80;99.90;;;;;;5075755;28;19965;-76
2022/08/15 01:58:45;;;;;;;;;;;20.90;99.90;;;;;;5070274;28;19948;-76
2022/08/15 02:01:15;;;;;;;;;;;20.90;99.90;;;;;;5075088;28;19919;-76
2022/08/15 02:03:41;;;;;;;;;;;21.00;99.90;;;;;;5074547;28;19916;-75
2022/08/15 02:06:09;;;;;;;;;;;21.00;99.90;;;;;;5074907;28;19920;-76
2022/08/15 02:08:36;;;;;;;;;;;21.10;99.90;;;;;;5067037;28;19912;-75
2022/08/15 02:11:03;;;;;;;;;;;21.00;99.90;;;;;;5061555;28;19917;-75
2022/08/15 02:13:29;;;;;;;;;;;21.10;99.90;;;;;;5071637;28;19966;-75
2022/08/15 02:15:54;;;;;;;;;;;21.10;99.90;;;;;;5071581;28;19912;-76
2022/08/15 02:18:20;;;;;;;;;;;21.10;99.90;;;;;;5066174;28;19916;-76
2022/08/15 02:20:46;;;;;;;;;;;21.10;99.90;;;;;;5067715;28;19917;-76
2022/08/15 02:23:11;;;;;;;;;;;21.00;99.90;;;;;;5072892;28;19953;-76
2022/08/15 02:25:37;;;;;;;;;;;21.00;99.90;;;;;;5075893;28;19917;-77
2022/08/15 02:28:02;;;;;;;;;;;21.00;99.90;;;;;;5076172;28;19969;-77
2022/08/15 02:30:28;;;;;;;;;;;21.20;99.90;;;;;;5074359;28;19920;-75
2022/08/15 02:32:54;;;;;;;;;;;21.20;99.90;;;;;;5072960;28;19918;-75
2022/08/15 02:35:19;;;;;;;;;;;21.30;99.90;;;;;;5074588;28;19920;-76
2022/08/15 02:37:45;;;;;;;;;;;21.40;99.90;;;;;;5074904;28;19916;-76
2022/08/15 02:40:14;;;;;;;;;;;21.40;99.90;;;;;;5109725;28;19952;-78
2022/08/15 02:42:40;;;;;;;;;;;21.40;99.90;;;;;;5074923;28;20283;-76
2022/08/15 02:45:10;;;;;;;;;;;21.40;99.90;;;;;;5072371;28;19987;-76
2022/08/15 02:47:43;;;;;;;;;;;21.40;99.90;;;;;;5068551;28;19993;-77
2022/08/15 02:50:09;;;;;;;;;;;21.40;99.90;;;;;;5067111;28;19913;-76
2022/08/15 02:52:42;;;;;;;;;;;21.50;99.90;;;;;;5100976;28;20027;-77
2022/08/15 02:55:09;;;;;;;;;;;21.50;99.90;;;;;;5077021;28;19912;-76
2022/08/15 02:57:35;;;;;;;;;;;21.50;99.90;;;;;;5073150;28;20255;-76
2022/08/15 03:00:01;;;;;;;;;;;21.50;99.90;;;;;;5074952;28;19920;-76
2022/08/15 03:02:27;;;;;;;;;;;21.50;99.90;;;;;;5075105;28;19916;-76
2022/08/15 03:04:53;;;;;;;;;;;21.50;99.90;;;;;;5069589;28;19917;-75
2022/08/15 03:07:18;;;;;;;;;;;21.50;99.90;;;;;;5067065;28;20231;-76
2022/08/15 03:09:44;;;;;;;;;;;21.70;99.90;;;;;;5086972;28;19913;-76
2022/08/15 03:12:13;;;;;;;;;;;21.70;99.90;;;;;;5076400;28;19916;-76
2022/08/15 03:14:39;;;;;;;;;;;21.80;99.90;;;;;;5074386;28;19971;-76
2022/08/15 03:17:08;;;;;;;;;;;21.80;99.90;;;;;;5075302;28;19925;-76
2022/08/15 03:19:35;;;;;;;;;;;21.70;99.90;;;;;;5074023;28;19919;-76
2022/08/15 03:22:01;;;;;;;;;;;21.70;99.90;;;;;;5072623;28;20004;-76
2022/08/15 03:24:26;;;;;;;;;;;21.60;99.90;;;;;;5076434;28;20053;-76
2022/08/15 03:26:52;;;;;;;;;;;21.60;99.90;;;;;;5075177;28;19916;-77
2022/08/15 03:29:18;;;;;;;;;;;21.60;99.90;;;;;;5076517;28;19960;-76
2022/08/15 03:31:47;;;;;;;;;;;21.60;99.90;;;;;;5073095;28;19916;-77
2022/08/15 03:34:13;;;;;;;;;;;21.60;99.90;;;;;;5071986;28;20358;-76
2022/08/15 03:36:40;;;;;;;;;;;21.50;99.90;;;;;;5059794;28;19923;-77
2022/08/15 03:39:05;;;;;;;;;;;21.50;99.90;;;;;;5066074;28;19917;-76
2022/08/15 03:41:31;;;;;;;;;;;21.50;99.90;;;;;;5064163;28;20321;-76
2022/08/15 03:43:56;;;;;;;;;;;21.60;99.90;;;;;;5058779;28;19917;-76
2022/08/15 03:46:22;;;;;;;;;;;21.60;99.90;;;;;;5058640;28;19924;-76
2022/08/15 03:48:51;;;;;;;;;;;21.70;99.90;;;;;;5059385;28;19913;-76
2022/08/15 03:51:18;;;;;;;;;;;21.80;99.90;;;;;;5058289;28;19917;-76
2022/08/15 03:53:49;;;;;;;;;;;21.70;99.90;;;;;;5058196;28;19931;-77
2022/08/15 03:56:18;;;;;;;;;;;21.70;99.90;;;;;;5056073;28;19913;-79
2022/08/15 03:58:45;;;;;;;;;;;21.70;99.90;;;;;;5054210;28;19912;-73
2022/08/15 04:01:17;;;;;;;;;;;21.60;99.90;;;;;;5063908;28;19935;-77
2022/08/15 04:03:44;;;;;;;;;;;21.60;99.90;;;;;;5061452;28;19928;-76
2022/08/15 04:06:10;;;;;;;;;;;21.60;99.90;;;;;;5056039;28;20308;-76
2022/08/15 04:08:36;;;;;;;;;;;21.50;99.90;;;;;;5058131;28;20629;-75
2022/08/15 04:11:03;;;;;;;;;;;21.60;99.90;;;;;;5060424;28;20379;-76
2022/08/15 04:13:29;;;;;;;;;;;21.60;99.90;;;;;;5062791;28;19913;-78
2022/08/15 04:16:00;;;;;;;;;;;21.50;99.90;;;;;;5067452;28;19919;-72
2022/08/15 04:18:25;;;;;;;;;;;21.50;99.90;;;;;;5063143;28;19921;-77
2022/08/15 04:20:53;;;;;;;;;;;21.50;99.90;;;;;;5061125;28;19998;-76
2022/08/15 04:23:19;;;;;;;;;;;21.50;99.90;;;;;;5059187;28;20012;-76
2022/08/15 04:25:44;;;;;;;;;;;21.40;99.90;;;;;;5059224;28;20011;-77
2022/08/15 04:28:13;;;;;;;;;;;21.40;99.90;;;;;;5055546;28;19978;-76
2022/08/15 04:30:40;;;;;;;;;;;21.40;99.90;;;;;;5060099;28;19917;-77
2022/08/15 04:33:07;;;;;;;;;;;21.30;99.90;;;;;;5063178;28;19955;-76
2022/08/15 04:35:34;;;;;;;;;;;21.30;99.90;;;;;;5064694;28;19916;-76
2022/08/15 04:37:59;;;;;;;;;;;21.30;99.90;;;;;;5063449;28;19913;-76
2022/08/15 04:40:25;;;;;;;;;;;21.30;99.90;;;;;;5064668;28;19920;-76
2022/08/15 04:42:55;;;;;;;;;;;21.40;99.90;;;;;;5067471;28;20390;-76
2022/08/15 04:45:21;;;;;;;;;;;21.40;99.90;;;;;;5066324;28;19920;-76
2022/08/15 04:47:47;;;;;;;;;;;21.40;99.90;;;;;;5063519;28;19928;-76
2022/08/15 04:50:13;;;;;;;;;;;21.30;99.90;;;;;;5103306;28;19973;-75
2022/08/15 04:52:43;;;;;;;;;;;21.20;99.90;;;;;;5084053;28;20304;-75
2022/08/15 04:55:09;;;;;;;;;;;21.20;99.90;;;;;;5070251;28;19913;-75
2022/08/15 04:57:35;;;;;;;;;;;21.20;99.90;;;;;;5072965;28;20034;-76
2022/08/15 05:00:00;;;;;;;;;;;21.20;99.90;;;;;;5067680;28;19912;-77
2022/08/15 05:02:26;;;;;;;;;;;21.10;99.90;;;;;;5060751;28;19920;-77
2022/08/15 05:04:51;;;;;;;;;;;21.20;99.90;;;;;;5062037;28;19924;-76
2022/08/15 05:07:17;;;;;;;;;;;21.30;99.90;;;;;;5068510;28;20333;-77
2022/08/15 05:09:43;;;;;;;;;;;21.40;99.90;;;;;;5065861;28;19912;-76
2022/08/15 05:12:09;;;;;;;;;;;21.40;99.90;;;;;;5066749;28;19912;-76
2022/08/15 05:14:35;;;;;;;;;;;21.50;99.90;;;;;;5065782;28;19913;-73
2022/08/15 05:17:01;;;;;;;;;;;21.50;99.90;;;;;;5097480;28;19928;-75
2022/08/15 05:19:26;;;;;;;;;;;21.50;99.90;;;;;;5078941;28;20337;-74
2022/08/15 05:21:52;;;;;;;;;;;21.60;99.90;;;;;;5062862;28;20204;-73
2022/08/15 05:24:17;;;;;;;;;;;21.70;99.90;;;;;;5062133;28;19976;-73
2022/08/15 05:26:43;;;;;;;;;;;21.60;99.90;;;;;;5064937;28;20042;-75
2022/08/15 05:29:08;;;;;;;;;;;21.70;99.90;;;;;;5065064;28;19958;-75
2022/08/15 05:31:35;;;;;;;;;;;21.80;99.90;;;;;;5067478;28;21358;-75
2022/08/15 05:34:01;;;;;;;;;;;21.70;99.90;;;;;;5068586;28;19909;-75
2022/08/15 05:36:27;;;;;;;;;;;21.70;99.90;;;;;;5056105;28;19928;-74
2022/08/15 05:38:59;;;;;;;;;;;21.90;99.90;;;;;;5056323;28;19937;-73
2022/08/15 05:41:47;;;;;;;;;;;21.90;99.90;;;;;;5075807;28;20359;-76
2022/08/15 05:44:18;;;;;;;;;;;21.90;99.90;;;;;;5060343;28;20254;-75
2022/08/15 05:47:04;;;;;;;;;;;21.90;99.90;;;;;;5064023;28;19987;-75
2022/08/15 05:49:30;;;;;;;;;;;22.00;99.90;;;;;;5069630;28;20051;-74
2022/08/15 05:52:02;;;;;;;;;;;22.00;99.90;;;;;;5072077;28;19999;-74
2022/08/15 05:54:50;;;;;;;;;;;22.10;99.90;;;;;;5062493;28;19997;-73
2022/08/15 05:57:20;;;;;;;;;;;22.00;99.90;;;;;;5073837;28;19917;-73
2022/08/15 05:59:48;;;;;;;;;;;21.90;99.90;;;;;;5066987;28;19986;-77
2022/08/15 06:02:18;;;;;;;;;;;21.80;99.90;;;;;;5060740;28;19966;-77
2022/08/15 06:04:51;;;;;;;;;;;21.80;99.90;;;;;;5065213;28;19962;-78
2022/08/15 06:07:17;;;;;;;;;;;21.80;99.90;;;;;;5067526;28;20003;-77
2022/08/15 06:09:50;;;;;;;;;;;21.80;99.90;;;;;;5068252;28;19909;-74
2022/08/15 06:12:22;;;;;;;;;;;21.80;99.90;;;;;;5057843;28;20219;-76
2022/08/15 06:14:50;;;;;;;;;;;21.70;99.90;;;;;;5062894;28;19920;-75
2022/08/15 06:17:36;;;;;;;;;;;21.70;99.90;;;;;;5067071;28;19931;-77
2022/08/15 06:20:03;;;;;;;;;;;21.70;99.90;;;;;;5067131;28;20006;-76
2022/08/15 06:22:42;;;;;;;;;;;21.80;99.90;;;;;;5061829;28;19913;-77
2022/08/15 06:25:16;;;;;;;;;;;21.90;99.90;;;;;;5060582;28;20007;-76
2022/08/15 06:28:01;;;;;;;;;;;21.90;99.90;;;;;;5074458;28;20329;-75
2022/08/15 06:30:32;;;;;;;;;;;22.00;99.90;;;;;;5063240;28;19928;-73
2022/08/15 06:33:07;;;;;;;;;;;22.00;99.90;;;;;;5065010;28;20289;-76
2022/08/15 06:35:35;;;;;;;;;;;22.10;99.90;;;;;;5069772;28;19999;-76
2022/08/15 06:38:04;;;;;;;;;;;22.10;99.90;;;;;;5071244;28;19912;-76
2022/08/15 06:40:33;;;;;;;;;;;22.20;99.90;;;;;;5072037;28;19913;-76
2022/08/15 06:42:59;;;;;;;;;;;22.30;99.90;;;;;;5074292;28;20326;-76
2022/08/15 06:45:26;;;;;;;;;;;22.40;99.90;;;;;;5073766;28;19917;-75
2022/08/15 06:47:59;;;;;;;;;;;22.50;99.90;;;;;;5074637;28;20591;-74
2022/08/15 06:50:28;;;;;;;;;;;22.60;99.90;;;;;;5073361;28;20242;-74
2022/08/15 06:52:57;;;;;;;;;;;22.70;99.90;;;;;;5074249;28;19920;-74
2022/08/15 06:55:26;;;;;;;;;;;22.80;99.90;;;;;;5072668;28;19917;-74
2022/08/15 06:57:54;;;;;;;;;;;22.80;99.90;;;;;;5073241;28;19916;-74
2022/08/15 07:00:27;;;;;;;;;;;22.80;99.90;;;;;;5072252;28;19928;-76
2022/08/15 07:03:04;;;;;;;;;;;22.90;99.90;;;;;;5073064;28;19917;-74
2022/08/15 07:05:47;;;;;;;;;;;22.90;99.90;;;;;;5073612;28;20015;-74
2022/08/15 07:08:32;;;;;;;;;;;22.90;99.90;;;;;;5089361;28;19917;-74
2022/08/15 07:11:08;;;;;;;;;;;22.90;99.90;;;;;;5071966;28;20390;-72
2022/08/15 07:13:59;;;;;;;;;;;23.00;99.90;;;;;;5072924;28;20632;-74
2022/08/15 07:16:30;;;;;;;;;;;23.00;99.90;;;;;;5028796;28;19928;-75
2022/08/15 07:18:57;;;;;;;;;;;23.10;99.90;;;;;;5072941;28;19920;-75
2022/08/15 07:21:23;;;;;;;;;;;23.20;99.90;;;;;;5056602;28;19920;-74
2022/08/15 07:23:58;;;;;;;;;;;23.30;99.90;;;;;;5073417;28;19923;-75
2022/08/15 07:26:24;;;;;;;;;;;23.50;99.90;;;;;;5074171;28;20265;-73
2022/08/15 07:28:50;;;;;;;;;;;23.90;99.90;;;;;;5071895;28;19919;-74
2022/08/15 07:31:43;;;;;;;;;;;24.40;99.90;;;;;;5105401;28;19924;-74
2022/08/15 07:34:18;;;;;;;;;;;24.90;99.90;;;;;;5073535;28;19983;-74
2022/08/15 07:36:54;;;;;;;;;;;25.30;99.90;;;;;;5073499;28;19923;-74
2022/08/15 07:39:23;;;;;;;;;;;25.70;99.90;;;;;;5072895;28;20014;-75
2022/08/15 07:41:48;;;;;;;;;;;26.00;99.90;;;;;;5069433;28;19916;-74
2022/08/15 07:44:14;;;;;;;;;;;26.20;99.90;;;;;;5071357;28;19916;-77
2022/08/15 07:46:44;;;;;;;;;;;26.20;99.90;;;;;;5073119;28;19916;-73
2022/08/15 07:49:17;;;;;;;;;;;26.30;99.90;;;;;;5077314;28;19916;-74
2022/08/15 07:51:46;;;;;;;;;;;26.20;99.90;;;;;;5070939;28;19970;-75
2022/08/15 07:54:26;;;;;;;;;;;26.10;99.90;;;;;;5072143;28;19964;-75
2022/08/15 07:56:54;;;;;;;;;;;26.30;99.90;;;;;;5068024;28;19917;-75
2022/08/15 07:59:20;;;;;;;;;;;26.40;99.90;;;;;;5075931;28;19920;-75
2022/08/15 08:01:46;;;;;;;;;;;26.50;99.90;;;;;;5062989;28;20472;-75
2022/08/15 08:04:33;;;;;;;;;;;26.70;99.90;;;;;;5057607;28;19925;-75
2022/08/15 08:07:10;;;;;;;;;;;26.90;99.90;;;;;;5063317;28;19912;-75
2022/08/15 08:09:42;;;;;;;;;;;26.60;99.90;;;;;;5062507;28;19980;-75
2022/08/15 08:12:10;;;;;;;;;;;26.20;99.90;;;;;;5058735;28;19916;-75
2022/08/15 08:14:48;;;;;;;;;;;25.90;99.90;;;;;;5065682;28;19957;-75
2022/08/15 08:17:13;;;;;;;;;;;25.70;99.90;;;;;;5055583;28;19991;-74
2022/08/15 08:20:03;;;;;;;;;;;25.40;99.90;;;;;;5075589;28;19925;-74
2022/08/15 08:22:36;;;;;;;;;;;25.30;99.90;;;;;;5060502;28;19924;-74
2022/08/15 08:25:05;;;;;;;;;;;25.20;99.90;;;;;;5072564;28;19977;-74
2022/08/15 08:27:34;;;;;;;;;;;25.30;99.90;;;;;;5062774;28;19916;-74
2022/08/15 08:30:05;;;;;;;;;;;25.40;99.90;;;;;;5068248;28;19983;-74
2022/08/15 08:32:37;;;;;;;;;;;25.90;99.90;;;;;;5097391;28;19920;-73
2022/08/15 08:35:12;;;;;;;;;;;26.40;99.90;;;;;;5064872;28;19961;-75
2022/08/15 08:37:41;;;;;;;;;;;26.80;99.80;;;;;;5069897;28;19912;-73
2022/08/15 08:43:05;;;;;;;;;;;27.20;99.90;;;;;;5070569;28;19920;-74
2022/08/15 08:45:38;;;;;;;;;;;27.60;99.80;;;;;;5073392;28;19916;-74
2022/08/15 08:48:23;;;;;;;;;;;27.90;99.50;;;;;;5072315;28;19924;-74
2022/08/15 08:50:56;;;;;;;;;;;27.90;99.20;;;;;;5071627;28;20214;-74
2022/08/15 08:53:30;;;;;;;;;;;28.20;98.70;;;;;;5070954;28;19920;-75
2022/08/15 08:55:58;;;;;;;;;;;28.10;98.30;;;;;;5068292;28;20023;-74
2022/08/15 08:58:31;;;;;;;;;;;27.90;98.20;;;;;;5065340;28;20269;-75
2022/08/15 09:00:58;;;;;;;;;;;27.60;98.80;;;;;;5059942;28;19955;-74
2022/08/15 09:03:27;;;;;;;;;;;27.50;99.00;;;;;;5074379;28;20303;-75
2022/08/15 09:05:58;;;;;;;;;;;27.90;99.50;;;;;;5059253;28;19924;-75
2022/08/15 09:08:26;;;;;;;;;;;28.30;99.50;;;;;;5066490;28;20018;-74
2022/08/15 09:10:55;;;;;;;;;;;28.70;99.30;;;;;;5080038;28;20019;-75
2022/08/15 09:13:34;;;;;;;;;;;28.80;97.20;;;;;;5065418;28;19916;-72
2022/08/15 09:16:06;;;;;;;;;;;28.70;96.70;;;;;;5058598;28;20224;-73
2022/08/15 09:18:39;;;;;;;;;;;28.80;97.20;;;;;;5060785;28;19937;-74
2022/08/15 09:21:05;;;;;;;;;;;28.70;97.20;;;;;;5057732;28;19920;-74
2022/08/15 09:23:35;;;;;;;;;;;28.80;97.90;;;;;;5061112;28;19967;-74
2022/08/15 09:26:11;;;;;;;;;;;29.10;98.20;;;;;;5060740;28;19924;-75
2022/08/15 09:28:38;;;;;;;;;;;29.10;97.20;;;;;;5057604;28;19921;-75
2022/08/15 09:31:16;;;;;;;;;;;28.80;97.90;;;;;;5058497;28;19913;-74
2022/08/15 09:33:47;;;;;;;;;;;28.50;98.10;;;;;;5067639;28;19924;-74
2022/08/15 09:36:16;;;;;;;;;;;28.30;99.00;;;;;;5071727;28;19913;-75
2022/08/15 09:38:47;;;;;;;;;;;28.20;98.90;;;;;;5069151;28;19924;-75
2022/08/15 09:41:39;;;;;;;;;;;28.10;98.60;;;;;;5066703;28;19947;-75
2022/08/15 09:44:23;;;;;;;;;;;28.10;97.90;;;;;;5069447;28;19923;-75
2022/08/15 09:47:08;;;;;;;;;;;28.10;98.30;;;;;;5070202;28;20320;-74
2022/08/15 09:49:42;;;;;;;;;;;28.40;98.10;;;;;;5066603;28;20001;-75
2022/08/15 09:52:11;;;;;;;;;;;28.70;98.90;;;;;;5070794;28;19959;-74
2022/08/15 09:54:59;;;;;;;;;;;28.60;98.00;;;;;;5067852;28;20221;-74
2022/08/15 09:57:36;;;;;;;;;;;28.50;98.50;;;;;;5064254;28;20300;-75
2022/08/15 10:00:16;;;;;;;;;;;28.20;97.60;;;;;;5064452;28;19924;-74
2022/08/15 10:02:43;;;;;;;;;;;28.10;97.00;;;;;;5071889;28;19978;-75
2022/08/15 10:05:23;;;;;;;;;;;28.20;97.40;;;;;;5071666;28;19916;-74
2022/08/15 10:07:51;;;;;;;;;;;28.50;97.30;;;;;;5072167;28;19913;-73
2022/08/15 10:10:21;;;;;;;;;;;28.50;97.60;;;;;;5067125;28;19921;-75
2022/08/15 10:13:05;;;;;;;;;;;28.70;97.90;;;;;;5070012;28;19916;-75
2022/08/15 10:15:41;;;;;;;;;;;28.80;97.70;;;;;;5074724;28;20536;-74
2022/08/15 10:18:08;;;;;;;;;;;28.80;97.60;;;;;;5074252;28;19977;-73
2022/08/15 10:20:33;;;;;;;;;;;28.60;97.50;;;;;;5073875;28;19977;-74
2022/08/15 10:22:59;;;;;;;;;;;28.40;97.80;;;;;;5075164;28;19916;-76
2022/08/15 10:25:31;;;;;;;;;;;28.10;97.70;;;;;;5074356;28;19977;-74
2022/08/15 10:28:12;;;;;;;;;;;28.00;97.70;;;;;;5074765;28;19920;-76
2022/08/15 10:30:41;;;;;;;;;;;27.80;97.70;;;;;;5074328;28;19971;-75
2022/08/15 10:33:26;;;;;;;;;;;27.60;98.30;;;;;;5075265;28;19916;-75
2022/08/15 10:35:55;;;;;;;;;;;27.40;98.90;;;;;;5074891;28;19923;-77
2022/08/15 10:38:25;;;;;;;;;;;27.40;99.20;;;;;;5075245;28;19912;-76
2022/08/15 10:41:26;;;;;;;;;;;27.30;99.20;;;;;;5075710;28;20265;-75
2022/08/15 10:43:57;;;;;;;;;;;27.50;99.90;;;;;;5010624;28;19976;-77
2022/08/15 10:46:41;;;;;;;;;;;27.90;99.30;;;;;;5004620;28;20365;-76
2022/08/15 10:49:25;;;;;;;;;;;28.00;99.90;;;;;;5013995;28;19914;-74
2022/08/15 10:52:11;;;;;;;;;;;28.10;99.60;;;;;;5010455;28;19913;-73
2022/08/15 10:54:43;;;;;;;;;;;28.30;99.20;;;;;;5003580;28;20041;-74
2022/08/15 10:57:10;;;;;;;;;;;28.50;99.10;;;;;;5014436;28;19913;-76
2022/08/15 10:59:37;;;;;;;;;;;28.50;99.20;;;;;;5008833;28;19917;-75
2022/08/15 11:02:08;;;;;;;;;;;28.70;99.60;;;;;;5006408;28;19923;-74
2022/08/15 11:04:35;;;;;;;;;;;28.50;99.30;;;;;;5012374;28;19925;-74
2022/08/15 11:07:15;;;;;;;;;;;28.20;98.90;;;;;;5012412;28;19949;-75
2022/08/15 11:09:41;;;;;;;;;;;27.90;99.30;;;;;;5011673;28;20264;-74
2022/08/15 11:12:08;;;;;;;;;;;27.60;99.60;;;;;;5011835;28;19924;-74
2022/08/15 11:14:38;;;;;;;;;;;27.40;99.80;;;;;;5011420;28;19922;-74
2022/08/15 11:17:05;;;;;;;;;;;27.20;99.90;;;;;;5022485;28;19986;-74
2022/08/15 11:19:35;;;;;;;;;;;27.10;99.90;;;;;;5074496;28;19958;-74
2022/08/15 11:22:02;;;;;;;;;;;26.90;99.90;;;;;;5072204;28;19967;-75
2022/08/15 11:24:30;;;;;;;;;;;26.90;99.90;;;;;;5056306;28;19925;-75
2022/08/15 11:27:16;;;;;;;;;;;26.80;99.90;;;;;;5072877;28;19912;-74
2022/08/15 11:29:43;;;;;;;;;;;26.70;99.90;;;;;;5073096;28;19917;-77
2022/08/15 11:32:12;;;;;;;;;;;26.60;99.90;;;;;;5072843;28;20253;-74
2022/08/15 11:34:43;;;;;;;;;;;26.50;99.90;;;;;;5076941;28;20345;-75
2022/08/15 11:37:09;;;;;;;;;;;26.50;99.90;;;;;;5074316;28;19912;-75
2022/08/15 11:39:36;;;;;;;;;;;26.50;99.90;;;;;;5074028;28;19920;-74
2022/08/15 11:42:03;;;;;;;;;;;26.50;99.90;;;;;;5074771;28;19916;-75
2022/08/15 11:44:37;;;;;;;;;;;26.30;99.90;;;;;;5072926;28;19917;-75
2022/08/15 11:47:05;;;;;;;;;;;26.30;99.90;;;;;;5073418;28;19921;-74
2022/08/15 11:49:41;;;;;;;;;;;26.20;99.90;;;;;;5073201;28;19940;-75
2022/08/15 11:52:08;;;;;;;;;;;26.10;99.90;;;;;;5072232;28;19978;-75
2022/08/15 11:54:33;;;;;;;;;;;26.00;99.90;;;;;;5072656;28;19934;-74
2022/08/15 11:57:01;;;;;;;;;;;25.90;99.90;;;;;;5072487;28;20336;-74
2022/08/15 11:59:35;;;;;;;;;;;25.80;99.90;;;;;;5071446;28;20204;-75
2022/08/15 12:02:03;;;;;;;;;;;25.80;99.90;;;;;;5072513;28;19912;-75
2022/08/15 12:04:31;;;;;;;;;;;25.70;99.90;;;;;;5071076;28;20941;-74
2022/08/15 12:06:57;;;;;;;;;;;25.60;99.90;;;;;;5071909;28;19917;-74
2022/08/15 12:09:24;;;;;;;;;;;25.60;99.90;;;;;;5071763;28;19916;-74
2022/08/15 12:11:50;;;;;;;;;;;25.60;99.90;;;;;;5088948;28;19974;-74
2022/08/15 12:14:19;;;;;;;;;;;25.60;99.90;;;;;;5072017;28;19916;-73
2022/08/15 12:17:01;;;;;;;;;;;25.70;99.90;;;;;;5072066;28;19926;-74
2022/08/15 12:19:37;;;;;;;;;;;25.70;99.90;;;;;;5073139;28;19921;-74
2022/08/15 12:22:06;;;;;;;;;;;25.70;99.90;;;;;;5070656;28;19996;-74
2022/08/15 12:24:34;;;;;;;;;;;25.80;99.90;;;;;;5071805;28;19942;-74
2022/08/15 12:27:01;;;;;;;;;;;25.80;99.90;;;;;;5072471;28;20254;-74
2022/08/15 12:29:31;;;;;;;;;;;25.90;99.90;;;;;;5072396;28;19920;-75
2022/08/15 12:31:58;;;;;;;;;;;25.90;99.90;;;;;;5087742;28;19966;-75
2022/08/15 12:34:29;;;;;;;;;;;26.00;99.90;;;;;;5070683;28;19920;-74
2022/08/15 12:36:54;;;;;;;;;;;26.10;99.90;;;;;;5087220;28;19913;-74
2022/08/15 12:39:20;;;;;;;;;;;26.10;99.90;;;;;;5072167;28;19918;-74
2022/08/15 12:41:47;;;;;;;;;;;26.20;99.90;;;;;;5070495;28;19920;-74
2022/08/15 12:44:18;;;;;;;;;;;26.20;99.90;;;;;;5105693;28;20015;-75
2022/08/15 12:46:44;;;;;;;;;;;26.30;99.90;;;;;;5070776;28;19913;-75
2022/08/15 12:49:09;;;;;;;;;;;26.20;99.90;;;;;;5071376;28;19923;-74
2022/08/15 12:51:35;;;;;;;;;;;26.10;99.90;;;;;;5102126;28;19916;-72
2022/08/15 12:54:00;;;;;;;;;;;26.10;99.90;;;;;;5074336;28;19908;-75
2022/08/15 12:56:26;;;;;;;;;;;26.00;99.90;;;;;;5068876;28;20346;-75
2022/08/15 12:58:52;;;;;;;;;;;26.00;99.90;;;;;;5068905;28;19917;-75
2022/08/15 13:01:17;;;;;;;;;;;26.00;99.90;;;;;;5066338;28;19920;-75
2022/08/15 13:03:44;;;;;;;;;;;26.10;99.90;;;;;;5072716;28;19924;-74
2022/08/15 13:06:14;;;;;;;;;;;26.10;99.90;;;;;;5060018;28;20338;-75
2022/08/15 13:08:39;;;;;;;;;;;26.00;99.90;;;;;;5061791;28;19932;-74
2022/08/15 13:11:05;;;;;;;;;;;26.10;99.90;;;;;;5061279;28;20308;-75
2022/08/15 13:13:30;;;;;;;;;;;26.00;99.90;;;;;;5070530;28;19916;-75
2022/08/15 13:15:56;;;;;;;;;;;26.00;99.90;;;;;;5076431;28;20308;-75
2022/08/15 13:18:23;;;;;;;;;;;25.90;99.90;;;;;;5062461;28;19917;-75
2022/08/15 13:23:39;;;;;;;;;;;25.90;99.90;;;;;;5059820;28;19967;-74
2022/08/15 13:26:11;;;;;;;;;;;25.90;99.90;;;;;;5062894;28;19958;-74
2022/08/15 13:28:41;;;;;;;;;;;25.90;99.90;;;;;;5063667;28;19920;-77
2022/08/15 13:31:07;;;;;;;;;;;25.90;99.90;;;;;;5062728;28;19929;-75
2022/08/15 13:33:33;;;;;;;;;;;25.90;99.90;;;;;;5063366;28;19912;-75
2022/08/15 13:35:59;;;;;;;;;;;26.00;99.90;;;;;;5054679;28;20047;-75
2022/08/15 13:38:29;;;;;;;;;;;26.10;99.90;;;;;;5078645;28;20292;-75
2022/08/15 13:40:54;;;;;;;;;;;26.10;99.90;;;;;;5063395;28;19916;-75
2022/08/15 13:43:20;;;;;;;;;;;26.20;99.90;;;;;;5057916;28;19962;-75
2022/08/15 13:45:47;;;;;;;;;;;26.20;99.90;;;;;;5076273;28;20052;-75
2022/08/15 13:48:21;;;;;;;;;;;26.20;99.90;;;;;;5053604;28;19912;-75
2022/08/15 13:50:48;;;;;;;;;;;26.20;99.90;;;;;;5062132;28;19917;-75
2022/08/15 13:53:15;;;;;;;;;;;26.30;99.90;;;;;;5061829;28;19931;-75
2022/08/15 13:55:41;;;;;;;;;;;26.30;99.90;;;;;;5069237;28;19920;-75
2022/08/15 13:58:06;;;;;;;;;;;26.20;99.90;;;;;;5070622;28;20003;-75
2022/08/15 14:00:33;;;;;;;;;;;26.20;99.90;;;;;;5070167;28;19924;-75
2022/08/15 14:03:00;;;;;;;;;;;26.10;99.90;;;;;;5070309;28;20046;-75
2022/08/15 14:05:26;;;;;;;;;;;26.10;99.90;;;;;;5071809;28;19931;-73
2022/08/15 14:07:51;;;;;;;;;;;26.10;99.90;;;;;;5070933;28;20494;-76
2022/08/15 14:10:19;;;;;;;;;;;26.00;99.90;;;;;;5070295;28;19924;-76
2022/08/15 14:12:45;;;;;;;;;;;26.10;99.90;;;;;;5070891;28;20375;-74
2022/08/15 14:15:13;;;;;;;;;;;26.00;99.90;;;;;;5071133;28;20007;-74
2022/08/15 14:17:39;;;;;;;;;;;25.90;99.90;;;;;;5072009;28;20215;-75
2022/08/15 14:20:09;;;;;;;;;;;25.90;99.90;;;;;;5072162;28;19913;-75
2022/08/15 14:22:34;;;;;;;;;;;26.00;99.90;;;;;;5068107;28;19912;-76
2022/08/15 14:25:00;;;;;;;;;;;26.00;99.90;;;;;;5067042;28;19917;-75
2022/08/15 14:27:26;;;;;;;;;;;26.10;99.90;;;;;;5068402;28;19962;-75
2022/08/15 14:29:52;;;;;;;;;;;26.10;99.90;;;;;;5071318;28;19929;-75
2022/08/15 14:32:19;;;;;;;;;;;26.10;99.90;;;;;;5068373;28;19916;-75
2022/08/15 14:34:45;;;;;;;;;;;26.10;99.90;;;;;;5069466;28;20266;-75
2022/08/15 14:37:14;;;;;;;;;;;26.10;99.90;;;;;;5071239;28;20367;-76
2022/08/15 14:39:40;;;;;;;;;;;26.30;99.90;;;;;;5071041;28;19967;-74